sensor_id;sensor_type;location;lat;lon;timestamp;P1;durP1;ratioP1;P2;durP2;ratioP2
48651;SDS011;34442;52.362;-1.302;2024-02-21T00:01:47;2.97;;;1.13;;
48651;SDS011;34442;52.362;-1.302;2024-02-21T00:04:12;2.05;;;0.90;;
48651;SDS011;34442;52.362;-1.302;2024-02-21T00:06:37;4.20;;;1.20;;
48651;SDS011;34442;52.362;-1.302;2024-02-21T00:09:03;1.90;;;0.90;;
48651;SDS011;34442;52.362;-1.302;2024-02-21T00:11:28;2.40;;;1.30;;
48651;SDS011;34442;52.362;-1.302;2024-02-21T00:13:54;2.65;;;1.23;;
48651;SDS011;34442;52.362;-1.302;2024-02-21T00:16:19;3.28;;;1.10;;
48651;SDS011;34442;52.362;-1.302;2024-02-21T00:18:45;2.03;;;1.10;;
48651;SDS011;34442;52.362;-1.302;2024-02-21T00:21:10;4.78;;;1.50;;
48651;SDS011;34442;52.362;-1.302;2024-02-21T00:23:40;2.38;;;1.23;;
48651;SDS011;34442;52.362;-1.302;2024-02-21T00:26:06;1.80;;;1.15;;
48651;SDS011;34442;52.362;-1.302;2024-02-21T00:28:32;1.65;;;1.00;;
48651;SDS011;34442;52.362;-1.302;2024-02-21T00:30:58;2.65;;;1.20;;
48651;SDS011;34442;52.362;-1.302;2024-02-21T00:33:23;5.07;;;1.50;;
48651;SDS011;34442;52.362;-1.302;2024-02-21T00:35:49;3.38;;;1.50;;
48651;SDS011;34442;52.362;-1.302;2024-02-21T00:38:14;2.92;;;1.10;;
48651;SDS011;34442;52.362;-1.302;2024-02-21T00:40:39;2.78;;;1.20;;
48651;SDS011;34442;52.362;-1.302;2024-02-21T00:43:05;4.68;;;1.40;;
48651;SDS011;34442;52.362;-1.302;2024-02-21T00:45:30;3.45;;;1.20;;
48651;SDS011;34442;52.362;-1.302;2024-02-21T00:47:56;3.47;;;1.40;;
48651;SDS011;34442;52.362;-1.302;2024-02-21T00:50:21;2.38;;;1.10;;
48651;SDS011;34442;52.362;-1.302;2024-02-21T00:52:46;3.00;;;1.50;;
48651;SDS011;34442;52.362;-1.302;2024-02-21T00:55:12;4.10;;;1.52;;
48651;SDS011;34442;52.362;-1.302;2024-02-21T00:57:37;6.72;;;1.50;;
48651;SDS011;34442;52.362;-1.302;2024-02-21T01:00:03;4.68;;;1.23;;
48651;SDS011;34442;52.362;-1.302;2024-02-21T01:02:29;4.85;;;1.48;;
48651;SDS011;34442;52.362;-1.302;2024-02-21T01:04:56;2.80;;;1.20;;
48651;SDS011;34442;52.362;-1.302;2024-02-21T01:07:22;3.90;;;1.20;;
48651;SDS011;34442;52.362;-1.302;2024-02-21T01:09:48;2.83;;;1.10;;
48651;SDS011;34442;52.362;-1.302;2024-02-21T01:12:13;2.75;;;1.15;;
48651;SDS011;34442;52.362;-1.302;2024-02-21T01:14:38;3.00;;;1.00;;
48651;SDS011;34442;52.362;-1.302;2024-02-21T01:17:04;2.70;;;1.20;;
48651;SDS011;34442;52.362;-1.302;2024-02-21T01:19:31;5.15;;;1.52;;
48651;SDS011;34442;52.362;-1.302;2024-02-21T01:21:56;4.10;;;1.48;;
48651;SDS011;34442;52.362;-1.302;2024-02-21T01:24:22;2.20;;;1.10;;
48651;SDS011;34442;52.362;-1.302;2024-02-21T01:26:47;3.72;;;1.40;;
48651;SDS011;34442;52.362;-1.302;2024-02-21T01:29:12;4.20;;;1.55;;
48651;SDS011;34442;52.362;-1.302;2024-02-21T01:31:38;3.65;;;1.52;;
48651;SDS011;34442;52.362;-1.302;2024-02-21T01:34:03;2.05;;;1.10;;
48651;SDS011;34442;52.362;-1.302;2024-02-21T01:36:29;3.55;;;1.23;;
48651;SDS011;34442;52.362;-1.302;2024-02-21T01:38:54;2.65;;;1.10;;
48651;SDS011;34442;52.362;-1.302;2024-02-21T01:41:19;2.92;;;1.40;;
48651;SDS011;34442;52.362;-1.302;2024-02-21T01:43:45;4.30;;;1.30;;
48651;SDS011;34442;52.362;-1.302;2024-02-21T01:46:10;3.63;;;1.35;;
48651;SDS011;34442;52.362;-1.302;2024-02-21T01:48:36;2.45;;;1.20;;
48651;SDS011;34442;52.362;-1.302;2024-02-21T01:51:02;4.55;;;1.42;;
48651;SDS011;34442;52.362;-1.302;2024-02-21T01:53:30;2.95;;;1.08;;
48651;SDS011;34442;52.362;-1.302;2024-02-21T01:55:58;3.30;;;1.20;;
48651;SDS011;34442;52.362;-1.302;2024-02-21T01:58:24;1.70;;;0.90;;
48651;SDS011;34442;52.362;-1.302;2024-02-21T02:00:49;2.13;;;1.08;;
48651;SDS011;34442;52.362;-1.302;2024-02-21T02:03:15;2.75;;;1.17;;
48651;SDS011;34442;52.362;-1.302;2024-02-21T02:05:47;2.47;;;1.10;;
48651;SDS011;34442;52.362;-1.302;2024-02-21T02:08:17;2.22;;;1.25;;
48651;SDS011;34442;52.362;-1.302;2024-02-21T02:10:44;3.38;;;1.27;;
48651;SDS011;34442;52.362;-1.302;2024-02-21T02:13:10;2.60;;;0.98;;
48651;SDS011;34442;52.362;-1.302;2024-02-21T02:15:40;3.80;;;1.23;;
48651;SDS011;34442;52.362;-1.302;2024-02-21T02:18:10;1.30;;;0.90;;
48651;SDS011;34442;52.362;-1.302;2024-02-21T02:20:36;1.15;;;1.00;;
48651;SDS011;34442;52.362;-1.302;2024-02-21T02:23:04;1.40;;;0.90;;
48651;SDS011;34442;52.362;-1.302;2024-02-21T02:25:33;1.85;;;1.05;;
48651;SDS011;34442;52.362;-1.302;2024-02-21T02:27:59;2.00;;;1.00;;
48651;SDS011;34442;52.362;-1.302;2024-02-21T02:30:25;2.35;;;1.15;;
48651;SDS011;34442;52.362;-1.302;2024-02-21T02:32:50;1.77;;;0.90;;
48651;SDS011;34442;52.362;-1.302;2024-02-21T02:35:15;1.50;;;0.90;;
48651;SDS011;34442;52.362;-1.302;2024-02-21T02:37:47;1.70;;;0.80;;
48651;SDS011;34442;52.362;-1.302;2024-02-21T02:40:13;1.55;;;0.80;;
48651;SDS011;34442;52.362;-1.302;2024-02-21T02:42:38;2.85;;;1.05;;
48651;SDS011;34442;52.362;-1.302;2024-02-21T02:45:04;1.25;;;0.73;;
48651;SDS011;34442;52.362;-1.302;2024-02-21T02:47:30;0.80;;;0.68;;
48651;SDS011;34442;52.362;-1.302;2024-02-21T02:49:55;2.08;;;0.90;;
48651;SDS011;34442;52.362;-1.302;2024-02-21T02:52:20;1.77;;;0.85;;
48651;SDS011;34442;52.362;-1.302;2024-02-21T02:54:46;1.85;;;1.00;;
48651;SDS011;34442;52.362;-1.302;2024-02-21T02:57:16;1.65;;;0.80;;
48651;SDS011;34442;52.362;-1.302;2024-02-21T02:59:42;1.60;;;0.90;;
48651;SDS011;34442;52.362;-1.302;2024-02-21T03:02:12;2.63;;;0.98;;
48651;SDS011;34442;52.362;-1.302;2024-02-21T03:04:39;1.90;;;0.85;;
48651;SDS011;34442;52.362;-1.302;2024-02-21T03:07:04;0.77;;;0.68;;
48651;SDS011;34442;52.362;-1.302;2024-02-21T03:09:30;1.40;;;1.00;;
48651;SDS011;34442;52.362;-1.302;2024-02-21T03:11:55;1.75;;;0.95;;
48651;SDS011;34442;52.362;-1.302;2024-02-21T03:14:27;1.52;;;1.00;;
48651;SDS011;34442;52.362;-1.302;2024-02-21T03:16:53;2.97;;;1.02;;
48651;SDS011;34442;52.362;-1.302;2024-02-21T03:19:18;1.90;;;1.10;;
48651;SDS011;34442;52.362;-1.302;2024-02-21T03:21:43;1.48;;;0.80;;
48651;SDS011;34442;52.362;-1.302;2024-02-21T03:24:09;3.45;;;1.15;;
48651;SDS011;34442;52.362;-1.302;2024-02-21T03:26:34;3.33;;;0.82;;
48651;SDS011;34442;52.362;-1.302;2024-02-21T03:28:59;3.53;;;1.35;;
48651;SDS011;34442;52.362;-1.302;2024-02-21T03:31:25;2.00;;;1.10;;
48651;SDS011;34442;52.362;-1.302;2024-02-21T03:33:50;1.65;;;1.00;;
48651;SDS011;34442;52.362;-1.302;2024-02-21T03:36:16;3.30;;;1.02;;
48651;SDS011;34442;52.362;-1.302;2024-02-21T03:38:41;2.60;;;1.02;;
48651;SDS011;34442;52.362;-1.302;2024-02-21T03:41:06;1.45;;;0.85;;
48651;SDS011;34442;52.362;-1.302;2024-02-21T03:43:32;1.02;;;0.90;;
48651;SDS011;34442;52.362;-1.302;2024-02-21T03:45:57;1.75;;;0.98;;
48651;SDS011;34442;52.362;-1.302;2024-02-21T03:48:23;4.47;;;1.05;;
48651;SDS011;34442;52.362;-1.302;2024-02-21T03:50:48;3.80;;;1.05;;
48651;SDS011;34442;52.362;-1.302;2024-02-21T03:53:13;1.15;;;0.80;;
48651;SDS011;34442;52.362;-1.302;2024-02-21T03:55:39;2.35;;;1.25;;
48651;SDS011;34442;52.362;-1.302;2024-02-21T03:58:04;2.63;;;1.20;;
48651;SDS011;34442;52.362;-1.302;2024-02-21T04:00:29;3.38;;;1.20;;
48651;SDS011;34442;52.362;-1.302;2024-02-21T04:02:55;1.63;;;1.10;;
48651;SDS011;34442;52.362;-1.302;2024-02-21T04:05:20;1.65;;;0.90;;
48651;SDS011;34442;52.362;-1.302;2024-02-21T04:07:46;1.35;;;0.90;;
48651;SDS011;34442;52.362;-1.302;2024-02-21T04:10:11;2.28;;;1.00;;
48651;SDS011;34442;52.362;-1.302;2024-02-21T04:12:37;1.42;;;0.90;;
48651;SDS011;34442;52.362;-1.302;2024-02-21T04:15:03;2.35;;;1.20;;
48651;SDS011;34442;52.362;-1.302;2024-02-21T04:17:29;1.55;;;1.10;;
48651;SDS011;34442;52.362;-1.302;2024-02-21T04:20:00;3.30;;;1.27;;
48651;SDS011;34442;52.362;-1.302;2024-02-21T04:22:34;1.90;;;1.13;;
48651;SDS011;34442;52.362;-1.302;2024-02-21T04:25:00;2.75;;;1.33;;
48651;SDS011;34442;52.362;-1.302;2024-02-21T04:27:25;2.47;;;1.20;;
48651;SDS011;34442;52.362;-1.302;2024-02-21T04:29:51;2.58;;;1.30;;
48651;SDS011;34442;52.362;-1.302;2024-02-21T04:32:17;2.67;;;1.17;;
48651;SDS011;34442;52.362;-1.302;2024-02-21T04:34:43;2.60;;;1.13;;
48651;SDS011;34442;52.362;-1.302;2024-02-21T04:37:08;1.50;;;1.08;;
48651;SDS011;34442;52.362;-1.302;2024-02-21T04:39:34;1.63;;;1.20;;
48651;SDS011;34442;52.362;-1.302;2024-02-21T04:41:59;2.80;;;1.05;;
48651;SDS011;34442;52.362;-1.302;2024-02-21T04:44:24;3.17;;;1.20;;
48651;SDS011;34442;52.362;-1.302;2024-02-21T04:46:50;2.45;;;1.40;;
48651;SDS011;34442;52.362;-1.302;2024-02-21T04:49:15;4.60;;;1.42;;
48651;SDS011;34442;52.362;-1.302;2024-02-21T04:51:40;2.20;;;1.27;;
48651;SDS011;34442;52.362;-1.302;2024-02-21T04:54:06;3.90;;;1.38;;
48651;SDS011;34442;52.362;-1.302;2024-02-21T04:56:31;3.58;;;1.33;;
48651;SDS011;34442;52.362;-1.302;2024-02-21T04:58:57;5.60;;;1.40;;
48651;SDS011;34442;52.362;-1.302;2024-02-21T05:01:22;3.35;;;1.55;;
48651;SDS011;34442;52.362;-1.302;2024-02-21T05:03:47;2.35;;;1.20;;
48651;SDS011;34442;52.362;-1.302;2024-02-21T05:06:13;2.42;;;1.20;;
48651;SDS011;34442;52.362;-1.302;2024-02-21T05:08:38;2.72;;;1.20;;
48651;SDS011;34442;52.362;-1.302;2024-02-21T05:11:05;2.72;;;1.13;;
48651;SDS011;34442;52.362;-1.302;2024-02-21T05:13:30;1.73;;;0.95;;
48651;SDS011;34442;52.362;-1.302;2024-02-21T05:15:56;1.73;;;1.10;;
48651;SDS011;34442;52.362;-1.302;2024-02-21T05:18:21;1.65;;;0.98;;
48651;SDS011;34442;52.362;-1.302;2024-02-21T05:20:46;2.50;;;1.23;;
48651;SDS011;34442;52.362;-1.302;2024-02-21T05:23:12;2.10;;;1.10;;
48651;SDS011;34442;52.362;-1.302;2024-02-21T05:25:37;2.38;;;1.15;;
48651;SDS011;34442;52.362;-1.302;2024-02-21T05:28:03;3.47;;;1.08;;
48651;SDS011;34442;52.362;-1.302;2024-02-21T05:30:30;2.75;;;1.20;;
48651;SDS011;34442;52.362;-1.302;2024-02-21T05:32:56;3.38;;;1.08;;
48651;SDS011;34442;52.362;-1.302;2024-02-21T05:35:28;1.35;;;0.93;;
48651;SDS011;34442;52.362;-1.302;2024-02-21T05:37:54;1.63;;;1.00;;
48651;SDS011;34442;52.362;-1.302;2024-02-21T05:40:19;3.13;;;1.27;;
48651;SDS011;34442;52.362;-1.302;2024-02-21T05:42:45;1.48;;;0.82;;
48651;SDS011;34442;52.362;-1.302;2024-02-21T05:45:10;1.98;;;1.02;;
48651;SDS011;34442;52.362;-1.302;2024-02-21T05:47:35;1.58;;;0.88;;
48651;SDS011;34442;52.362;-1.302;2024-02-21T05:50:01;2.22;;;1.00;;
48651;SDS011;34442;52.362;-1.302;2024-02-21T05:52:26;4.97;;;1.20;;
48651;SDS011;34442;52.362;-1.302;2024-02-21T05:54:52;1.85;;;1.10;;
48651;SDS011;34442;52.362;-1.302;2024-02-21T05:57:17;1.67;;;1.10;;
48651;SDS011;34442;52.362;-1.302;2024-02-21T05:59:43;0.90;;;0.80;;
48651;SDS011;34442;52.362;-1.302;2024-02-21T06:02:09;2.53;;;0.95;;
48651;SDS011;34442;52.362;-1.302;2024-02-21T06:04:34;2.22;;;1.23;;
48651;SDS011;34442;52.362;-1.302;2024-02-21T06:07:00;2.35;;;1.10;;
48651;SDS011;34442;52.362;-1.302;2024-02-21T06:09:27;1.63;;;0.80;;
48651;SDS011;34442;52.362;-1.302;2024-02-21T06:11:52;2.20;;;1.20;;
48651;SDS011;34442;52.362;-1.302;2024-02-21T06:14:18;3.35;;;1.27;;
48651;SDS011;34442;52.362;-1.302;2024-02-21T06:16:44;3.33;;;1.20;;
48651;SDS011;34442;52.362;-1.302;2024-02-21T06:19:10;2.40;;;1.40;;
48651;SDS011;34442;52.362;-1.302;2024-02-21T06:21:35;2.67;;;1.30;;
48651;SDS011;34442;52.362;-1.302;2024-02-21T06:24:01;2.50;;;1.20;;
48651;SDS011;34442;52.362;-1.302;2024-02-21T06:26:26;2.20;;;1.20;;
48651;SDS011;34442;52.362;-1.302;2024-02-21T06:28:52;4.72;;;1.48;;
48651;SDS011;34442;52.362;-1.302;2024-02-21T06:31:17;2.08;;;1.35;;
48651;SDS011;34442;52.362;-1.302;2024-02-21T06:33:42;2.75;;;1.17;;
48651;SDS011;34442;52.362;-1.302;2024-02-21T06:36:08;2.42;;;1.30;;
48651;SDS011;34442;52.362;-1.302;2024-02-21T06:38:33;2.25;;;1.20;;
48651;SDS011;34442;52.362;-1.302;2024-02-21T06:40:59;8.02;;;1.95;;
48651;SDS011;34442;52.362;-1.302;2024-02-21T06:43:25;3.30;;;1.20;;
48651;SDS011;34442;52.362;-1.302;2024-02-21T06:45:51;4.30;;;1.27;;
48651;SDS011;34442;52.362;-1.302;2024-02-21T06:48:17;3.55;;;1.23;;
48651;SDS011;34442;52.362;-1.302;2024-02-21T06:50:43;2.20;;;1.20;;
48651;SDS011;34442;52.362;-1.302;2024-02-21T06:53:09;2.78;;;1.15;;
48651;SDS011;34442;52.362;-1.302;2024-02-21T06:55:34;2.55;;;1.13;;
48651;SDS011;34442;52.362;-1.302;2024-02-21T06:58:00;4.05;;;1.25;;
48651;SDS011;34442;52.362;-1.302;2024-02-21T07:00:27;2.92;;;1.25;;
48651;SDS011;34442;52.362;-1.302;2024-02-21T07:02:53;2.03;;;1.00;;
48651;SDS011;34442;52.362;-1.302;2024-02-21T07:05:19;2.97;;;1.20;;
48651;SDS011;34442;52.362;-1.302;2024-02-21T07:07:44;4.80;;;1.30;;
48651;SDS011;34442;52.362;-1.302;2024-02-21T07:10:10;2.45;;;1.17;;
48651;SDS011;34442;52.362;-1.302;2024-02-21T07:12:36;2.40;;;1.00;;
48651;SDS011;34442;52.362;-1.302;2024-02-21T07:15:04;3.88;;;1.20;;
48651;SDS011;34442;52.362;-1.302;2024-02-21T07:17:30;4.65;;;1.38;;
48651;SDS011;34442;52.362;-1.302;2024-02-21T07:19:55;5.10;;;1.73;;
48651;SDS011;34442;52.362;-1.302;2024-02-21T07:22:24;2.20;;;1.00;;
48651;SDS011;34442;52.362;-1.302;2024-02-21T07:24:50;2.75;;;1.25;;
48651;SDS011;34442;52.362;-1.302;2024-02-21T07:27:15;2.55;;;1.05;;
48651;SDS011;34442;52.362;-1.302;2024-02-21T07:29:41;2.53;;;1.05;;
48651;SDS011;34442;52.362;-1.302;2024-02-21T07:32:06;1.40;;;0.88;;
48651;SDS011;34442;52.362;-1.302;2024-02-21T07:34:32;1.73;;;0.93;;
48651;SDS011;34442;52.362;-1.302;2024-02-21T07:36:57;3.03;;;0.90;;
48651;SDS011;34442;52.362;-1.302;2024-02-21T07:39:23;1.95;;;0.90;;
48651;SDS011;34442;52.362;-1.302;2024-02-21T07:41:48;2.78;;;0.98;;
48651;SDS011;34442;52.362;-1.302;2024-02-21T07:44:14;2.30;;;0.90;;
48651;SDS011;34442;52.362;-1.302;2024-02-21T07:46:40;2.92;;;0.80;;
48651;SDS011;34442;52.362;-1.302;2024-02-21T07:49:06;0.98;;;0.73;;
48651;SDS011;34442;52.362;-1.302;2024-02-21T07:51:31;2.13;;;0.80;;
48651;SDS011;34442;52.362;-1.302;2024-02-21T07:53:56;1.85;;;0.80;;
48651;SDS011;34442;52.362;-1.302;2024-02-21T07:56:22;1.48;;;0.80;;
48651;SDS011;34442;52.362;-1.302;2024-02-21T07:58:47;2.38;;;1.00;;
48651;SDS011;34442;52.362;-1.302;2024-02-21T08:01:18;2.63;;;1.10;;
48651;SDS011;34442;52.362;-1.302;2024-02-21T08:03:47;1.55;;;0.82;;
48651;SDS011;34442;52.362;-1.302;2024-02-21T08:06:12;1.42;;;0.98;;
48651;SDS011;34442;52.362;-1.302;2024-02-21T08:08:38;3.92;;;1.00;;
48651;SDS011;34442;52.362;-1.302;2024-02-21T08:11:07;2.28;;;0.90;;
48651;SDS011;34442;52.362;-1.302;2024-02-21T08:13:32;1.48;;;0.73;;
48651;SDS011;34442;52.362;-1.302;2024-02-21T08:15:58;1.80;;;0.82;;
48651;SDS011;34442;52.362;-1.302;2024-02-21T08:18:23;1.52;;;0.77;;
48651;SDS011;34442;52.362;-1.302;2024-02-21T08:20:48;0.75;;;0.60;;
48651;SDS011;34442;52.362;-1.302;2024-02-21T08:23:18;1.13;;;0.80;;
48651;SDS011;34442;52.362;-1.302;2024-02-21T08:25:44;1.20;;;0.63;;
48651;SDS011;34442;52.362;-1.302;2024-02-21T08:28:09;1.52;;;0.90;;
48651;SDS011;34442;52.362;-1.302;2024-02-21T08:30:34;2.55;;;0.80;;
48651;SDS011;34442;52.362;-1.302;2024-02-21T08:33:00;0.88;;;0.70;;
48651;SDS011;34442;52.362;-1.302;2024-02-21T08:35:26;1.17;;;0.82;;
48651;SDS011;34442;52.362;-1.302;2024-02-21T08:37:51;1.55;;;0.70;;
48651;SDS011;34442;52.362;-1.302;2024-02-21T08:40:17;1.40;;;0.60;;
48651;SDS011;34442;52.362;-1.302;2024-02-21T08:42:44;1.42;;;0.80;;
48651;SDS011;34442;52.362;-1.302;2024-02-21T08:45:10;1.65;;;0.88;;
48651;SDS011;34442;52.362;-1.302;2024-02-21T08:47:35;1.25;;;0.85;;
48651;SDS011;34442;52.362;-1.302;2024-02-21T08:50:01;1.10;;;0.70;;
48651;SDS011;34442;52.362;-1.302;2024-02-21T08:52:27;1.15;;;0.80;;
48651;SDS011;34442;52.362;-1.302;2024-02-21T08:54:53;0.90;;;0.68;;
48651;SDS011;34442;52.362;-1.302;2024-02-21T08:57:19;1.65;;;0.65;;
48651;SDS011;34442;52.362;-1.302;2024-02-21T08:59:44;1.40;;;0.77;;
48651;SDS011;34442;52.362;-1.302;2024-02-21T09:02:10;0.88;;;0.70;;
48651;SDS011;34442;52.362;-1.302;2024-02-21T09:04:35;1.13;;;0.65;;
48651;SDS011;34442;52.362;-1.302;2024-02-21T09:07:01;0.52;;;0.52;;
48651;SDS011;34442;52.362;-1.302;2024-02-21T09:09:26;1.08;;;0.70;;
48651;SDS011;34442;52.362;-1.302;2024-02-21T09:11:53;1.73;;;0.70;;
48651;SDS011;34442;52.362;-1.302;2024-02-21T09:14:19;0.95;;;0.70;;
48651;SDS011;34442;52.362;-1.302;2024-02-21T09:16:46;1.13;;;0.60;;
48651;SDS011;34442;52.362;-1.302;2024-02-21T09:19:12;0.82;;;0.60;;
48651;SDS011;34442;52.362;-1.302;2024-02-21T09:21:38;0.88;;;0.73;;
48651;SDS011;34442;52.362;-1.302;2024-02-21T09:24:05;1.15;;;0.57;;
48651;SDS011;34442;52.362;-1.302;2024-02-21T09:26:31;0.52;;;0.52;;
48651;SDS011;34442;52.362;-1.302;2024-02-21T09:28:57;0.68;;;0.50;;
48651;SDS011;34442;52.362;-1.302;2024-02-21T09:31:23;0.52;;;0.52;;
48651;SDS011;34442;52.362;-1.302;2024-02-21T09:33:49;1.48;;;1.23;;
48651;SDS011;34442;52.362;-1.302;2024-02-21T09:36:15;1.00;;;0.70;;
48651;SDS011;34442;52.362;-1.302;2024-02-21T09:38:41;1.65;;;0.68;;
48651;SDS011;34442;52.362;-1.302;2024-02-21T09:43:42;1.20;;;0.52;;
48651;SDS011;34442;52.362;-1.302;2024-02-21T09:46:13;1.85;;;0.70;;
48651;SDS011;34442;52.362;-1.302;2024-02-21T09:51:16;0.70;;;0.60;;
48651;SDS011;34442;52.362;-1.302;2024-02-21T09:53:42;2.05;;;0.68;;
48651;SDS011;34442;52.362;-1.302;2024-02-21T09:56:09;0.82;;;0.63;;
48651;SDS011;34442;52.362;-1.302;2024-02-21T09:58:35;0.80;;;0.65;;
48651;SDS011;34442;52.362;-1.302;2024-02-21T10:01:01;0.57;;;0.57;;
48651;SDS011;34442;52.362;-1.302;2024-02-21T10:03:31;2.17;;;0.52;;
48651;SDS011;34442;52.362;-1.302;2024-02-21T10:05:58;0.50;;;0.50;;
48651;SDS011;34442;52.362;-1.302;2024-02-21T10:08:26;0.55;;;0.55;;
48651;SDS011;34442;52.362;-1.302;2024-02-21T10:10:52;0.57;;;0.50;;
48651;SDS011;34442;52.362;-1.302;2024-02-21T10:15:59;0.65;;;0.60;;
48651;SDS011;34442;52.362;-1.302;2024-02-21T10:18:28;0.47;;;0.47;;
48651;SDS011;34442;52.362;-1.302;2024-02-21T10:21:04;0.38;;;0.38;;
48651;SDS011;34442;52.362;-1.302;2024-02-21T10:23:44;0.45;;;0.45;;
48651;SDS011;34442;52.362;-1.302;2024-02-21T10:26:10;1.27;;;0.50;;
48651;SDS011;34442;52.362;-1.302;2024-02-21T10:28:36;0.82;;;0.52;;
48651;SDS011;34442;52.362;-1.302;2024-02-21T10:31:07;0.38;;;0.38;;
48651;SDS011;34442;52.362;-1.302;2024-02-21T10:33:32;0.43;;;0.43;;
48651;SDS011;34442;52.362;-1.302;2024-02-21T10:36:08;1.25;;;0.45;;
48651;SDS011;34442;52.362;-1.302;2024-02-21T10:38:35;0.50;;;0.50;;
48651;SDS011;34442;52.362;-1.302;2024-02-21T10:41:01;0.40;;;0.40;;
48651;SDS011;34442;52.362;-1.302;2024-02-21T10:43:30;0.40;;;0.40;;
48651;SDS011;34442;52.362;-1.302;2024-02-21T10:46:03;0.50;;;0.50;;
48651;SDS011;34442;52.362;-1.302;2024-02-21T10:48:33;2.05;;;0.50;;
48651;SDS011;34442;52.362;-1.302;2024-02-21T10:51:16;1.50;;;0.60;;
48651;SDS011;34442;52.362;-1.302;2024-02-21T10:54:02;0.50;;;0.50;;
48651;SDS011;34442;52.362;-1.302;2024-02-21T10:56:30;0.45;;;0.45;;
48651;SDS011;34442;52.362;-1.302;2024-02-21T10:59:00;0.50;;;0.50;;
48651;SDS011;34442;52.362;-1.302;2024-02-21T11:01:28;0.57;;;0.55;;
48651;SDS011;34442;52.362;-1.302;2024-02-21T11:03:56;0.85;;;0.50;;
48651;SDS011;34442;52.362;-1.302;2024-02-21T11:06:23;0.40;;;0.40;;
48651;SDS011;34442;52.362;-1.302;2024-02-21T11:11:54;0.40;;;0.40;;
48651;SDS011;34442;52.362;-1.302;2024-02-21T11:14:21;0.30;;;0.30;;
48651;SDS011;34442;52.362;-1.302;2024-02-21T11:16:46;0.50;;;0.40;;
48651;SDS011;34442;52.362;-1.302;2024-02-21T11:19:22;0.47;;;0.47;;
48651;SDS011;34442;52.362;-1.302;2024-02-21T11:21:50;0.40;;;0.40;;
48651;SDS011;34442;52.362;-1.302;2024-02-21T11:24:29;1.45;;;0.60;;
48651;SDS011;34442;52.362;-1.302;2024-02-21T11:27:07;0.30;;;0.30;;
48651;SDS011;34442;52.362;-1.302;2024-02-21T11:29:45;0.40;;;0.40;;
48651;SDS011;34442;52.362;-1.302;2024-02-21T11:32:16;0.40;;;0.40;;
48651;SDS011;34442;52.362;-1.302;2024-02-21T11:34:59;0.40;;;0.40;;
48651;SDS011;34442;52.362;-1.302;2024-02-21T11:37:33;0.40;;;0.40;;
48651;SDS011;34442;52.362;-1.302;2024-02-21T11:40:02;0.40;;;0.40;;
48651;SDS011;34442;52.362;-1.302;2024-02-21T11:42:28;0.40;;;0.40;;
48651;SDS011;34442;52.362;-1.302;2024-02-21T11:44:54;0.85;;;0.40;;
48651;SDS011;34442;52.362;-1.302;2024-02-21T11:47:24;0.40;;;0.40;;
48651;SDS011;34442;52.362;-1.302;2024-02-21T11:49:50;0.43;;;0.43;;
48651;SDS011;34442;52.362;-1.302;2024-02-21T11:52:20;0.40;;;0.40;;
48651;SDS011;34442;52.362;-1.302;2024-02-21T11:54:47;1.50;;;0.50;;
48651;SDS011;34442;52.362;-1.302;2024-02-21T11:57:13;0.50;;;0.50;;
48651;SDS011;34442;52.362;-1.302;2024-02-21T11:59:39;0.68;;;0.57;;
48651;SDS011;34442;52.362;-1.302;2024-02-21T12:02:05;0.80;;;0.50;;
48651;SDS011;34442;52.362;-1.302;2024-02-21T12:04:32;1.85;;;0.60;;
48651;SDS011;34442;52.362;-1.302;2024-02-21T12:06:58;0.82;;;0.50;;
48651;SDS011;34442;52.362;-1.302;2024-02-21T12:09:24;0.57;;;0.57;;
48651;SDS011;34442;52.362;-1.302;2024-02-21T12:11:57;1.02;;;0.50;;
48651;SDS011;34442;52.362;-1.302;2024-02-21T12:14:24;0.40;;;0.40;;
48651;SDS011;34442;52.362;-1.302;2024-02-21T12:16:50;1.02;;;0.60;;
48651;SDS011;34442;52.362;-1.302;2024-02-21T12:19:15;0.38;;;0.38;;
48651;SDS011;34442;52.362;-1.302;2024-02-21T12:21:42;0.40;;;0.40;;
48651;SDS011;34442;52.362;-1.302;2024-02-21T12:24:11;1.10;;;0.52;;
48651;SDS011;34442;52.362;-1.302;2024-02-21T12:26:37;0.55;;;0.55;;
48651;SDS011;34442;52.362;-1.302;2024-02-21T12:29:03;0.43;;;0.40;;
48651;SDS011;34442;52.362;-1.302;2024-02-21T12:31:28;0.40;;;0.40;;
48651;SDS011;34442;52.362;-1.302;2024-02-21T12:33:54;0.30;;;0.30;;
48651;SDS011;34442;52.362;-1.302;2024-02-21T12:36:19;0.40;;;0.40;;
48651;SDS011;34442;52.362;-1.302;2024-02-21T12:38:45;0.40;;;0.40;;
48651;SDS011;34442;52.362;-1.302;2024-02-21T12:41:14;0.40;;;0.40;;
48651;SDS011;34442;52.362;-1.302;2024-02-21T12:43:39;0.40;;;0.40;;
48651;SDS011;34442;52.362;-1.302;2024-02-21T12:46:05;0.80;;;0.55;;
48651;SDS011;34442;52.362;-1.302;2024-02-21T12:48:32;0.40;;;0.40;;
48651;SDS011;34442;52.362;-1.302;2024-02-21T12:50:59;0.52;;;0.43;;
48651;SDS011;34442;52.362;-1.302;2024-02-21T12:53:24;0.57;;;0.57;;
48651;SDS011;34442;52.362;-1.302;2024-02-21T12:55:50;0.40;;;0.40;;
48651;SDS011;34442;52.362;-1.302;2024-02-21T12:58:16;0.35;;;0.35;;
48651;SDS011;34442;52.362;-1.302;2024-02-21T13:00:41;0.57;;;0.43;;
48651;SDS011;34442;52.362;-1.302;2024-02-21T13:03:07;0.30;;;0.30;;
48651;SDS011;34442;52.362;-1.302;2024-02-21T13:05:36;0.40;;;0.40;;
48651;SDS011;34442;52.362;-1.302;2024-02-21T13:08:02;0.30;;;0.30;;
48651;SDS011;34442;52.362;-1.302;2024-02-21T13:10:27;0.40;;;0.40;;
48651;SDS011;34442;52.362;-1.302;2024-02-21T13:12:53;0.40;;;0.40;;
48651;SDS011;34442;52.362;-1.302;2024-02-21T13:15:19;0.40;;;0.40;;
48651;SDS011;34442;52.362;-1.302;2024-02-21T13:17:45;0.73;;;0.40;;
48651;SDS011;34442;52.362;-1.302;2024-02-21T13:20:10;0.77;;;0.50;;
48651;SDS011;34442;52.362;-1.302;2024-02-21T13:22:36;0.70;;;0.50;;
48651;SDS011;34442;52.362;-1.302;2024-02-21T13:25:05;0.30;;;0.30;;
48651;SDS011;34442;52.362;-1.302;2024-02-21T13:27:32;0.32;;;0.32;;
48651;SDS011;34442;52.362;-1.302;2024-02-21T13:29:58;0.40;;;0.40;;
48651;SDS011;34442;52.362;-1.302;2024-02-21T13:32:25;0.40;;;0.40;;
48651;SDS011;34442;52.362;-1.302;2024-02-21T13:34:50;0.40;;;0.40;;
48651;SDS011;34442;52.362;-1.302;2024-02-21T13:37:17;0.50;;;0.50;;
48651;SDS011;34442;52.362;-1.302;2024-02-21T13:39:43;0.40;;;0.40;;
48651;SDS011;34442;52.362;-1.302;2024-02-21T13:42:08;0.30;;;0.30;;
48651;SDS011;34442;52.362;-1.302;2024-02-21T13:44:34;0.30;;;0.30;;
48651;SDS011;34442;52.362;-1.302;2024-02-21T13:46:59;0.50;;;0.50;;
48651;SDS011;34442;52.362;-1.302;2024-02-21T13:49:25;1.00;;;0.50;;
48651;SDS011;34442;52.362;-1.302;2024-02-21T13:51:51;0.40;;;0.40;;
48651;SDS011;34442;52.362;-1.302;2024-02-21T13:54:16;1.80;;;0.52;;
48651;SDS011;34442;52.362;-1.302;2024-02-21T13:56:44;0.82;;;0.50;;
48651;SDS011;34442;52.362;-1.302;2024-02-21T13:59:11;0.43;;;0.40;;
48651;SDS011;34442;52.362;-1.302;2024-02-21T14:01:38;1.65;;;0.38;;
48651;SDS011;34442;52.362;-1.302;2024-02-21T14:04:04;0.75;;;0.40;;
48651;SDS011;34442;52.362;-1.302;2024-02-21T14:06:29;0.70;;;0.50;;
48651;SDS011;34442;52.362;-1.302;2024-02-21T14:08:55;0.85;;;0.40;;
48651;SDS011;34442;52.362;-1.302;2024-02-21T14:11:20;0.55;;;0.40;;
48651;SDS011;34442;52.362;-1.302;2024-02-21T14:13:46;0.40;;;0.40;;
48651;SDS011;34442;52.362;-1.302;2024-02-21T14:16:11;0.40;;;0.40;;
48651;SDS011;34442;52.362;-1.302;2024-02-21T14:18:38;0.30;;;0.30;;
48651;SDS011;34442;52.362;-1.302;2024-02-21T14:21:06;0.68;;;0.40;;
48651;SDS011;34442;52.362;-1.302;2024-02-21T14:23:32;0.40;;;0.40;;
48651;SDS011;34442;52.362;-1.302;2024-02-21T14:25:59;0.57;;;0.30;;
48651;SDS011;34442;52.362;-1.302;2024-02-21T14:28:24;0.30;;;0.30;;
48651;SDS011;34442;52.362;-1.302;2024-02-21T14:30:49;0.30;;;0.30;;
48651;SDS011;34442;52.362;-1.302;2024-02-21T14:33:19;0.28;;;0.28;;
48651;SDS011;34442;52.362;-1.302;2024-02-21T14:35:44;0.65;;;0.40;;
48651;SDS011;34442;52.362;-1.302;2024-02-21T14:38:10;0.32;;;0.32;;
48651;SDS011;34442;52.362;-1.302;2024-02-21T14:40:35;0.38;;;0.38;;